createdAt,value
2018-09-30T00:02:14.284Z,5.50
2018-09-30T00:04:43.137Z,5.40
2018-09-30T00:07:12.019Z,8.20
2018-09-30T00:09:40.915Z,8.43
2018-09-30T00:12:10.057Z,6.20
2018-09-30T00:14:38.907Z,4.23
2018-09-30T00:17:07.840Z,5.40
2018-09-30T00:19:36.654Z,10.83
2018-09-30T00:22:05.605Z,5.90
2018-09-30T00:24:39.632Z,11.93
2018-09-30T00:27:13.770Z,9.87
2018-09-30T00:29:42.913Z,8.30
2018-09-30T00:32:11.797Z,7.07
2018-09-30T00:34:40.532Z,6.00
2018-09-30T00:37:09.385Z,5.23
2018-09-30T00:39:38.213Z,4.23
2018-09-30T00:42:07.497Z,4.97
2018-09-30T00:44:36.300Z,7.03
2018-09-30T00:47:05.226Z,7.33
2018-09-30T00:49:34.156Z,9.53
2018-09-30T00:52:03.014Z,4.50
2018-09-30T00:54:31.984Z,7.40
2018-09-30T00:57:00.772Z,5.30
2018-09-30T00:59:29.697Z,7.93
2018-09-30T01:01:58.565Z,4.30
2018-09-30T01:04:27.520Z,7.10
2018-09-30T01:06:56.401Z,5.63
2018-09-30T01:09:25.248Z,9.83
2018-09-30T01:11:54.104Z,5.47
2018-09-30T01:14:23.136Z,7.50
2018-09-30T01:16:51.908Z,6.27
2018-09-30T01:19:20.812Z,5.57
2018-09-30T01:21:49.704Z,6.83
2018-09-30T01:24:18.624Z,8.47
2018-09-30T01:26:47.780Z,7.47
2018-09-30T01:29:16.688Z,4.93
2018-09-30T01:31:45.521Z,5.43
2018-09-30T01:34:14.378Z,9.00
2018-09-30T01:36:43.253Z,6.63
2018-09-30T01:39:12.252Z,6.90
2018-09-30T01:41:41.472Z,8.03
2018-09-30T01:44:10.285Z,7.00
2018-09-30T01:46:39.156Z,9.80
2018-09-30T01:49:08.047Z,15.87
2018-09-30T01:51:36.936Z,5.80
2018-09-30T01:54:05.798Z,6.73
2018-09-30T01:56:34.616Z,5.87
2018-09-30T01:59:04.119Z,5.50
2018-09-30T02:01:33.429Z,8.30
2018-09-30T02:04:02.246Z,7.77
2018-09-30T02:06:31.318Z,4.50
2018-09-30T02:09:00.147Z,9.03
2018-09-30T02:11:28.907Z,7.97
2018-09-30T02:13:57.738Z,8.40
2018-09-30T02:16:26.624Z,6.07
2018-09-30T02:18:55.319Z,9.50
2018-09-30T02:21:24.168Z,5.80
2018-09-30T02:23:52.954Z,6.10
2018-09-30T02:26:21.785Z,10.80
2018-09-30T02:28:50.632Z,10.23
2018-09-30T02:31:19.446Z,9.93
2018-09-30T02:33:48.383Z,6.23
2018-09-30T02:36:17.224Z,5.90
2018-09-30T02:38:46.109Z,5.70
2018-09-30T02:41:14.960Z,5.50
2018-09-30T02:43:43.802Z,8.63
2018-09-30T02:46:12.751Z,12.43
2018-09-30T02:48:41.633Z,6.40
2018-09-30T02:51:10.464Z,5.93
2018-09-30T02:53:39.447Z,6.20
2018-09-30T02:56:08.243Z,6.00
2018-09-30T02:58:37.152Z,7.30
2018-09-30T03:01:05.996Z,5.90
2018-09-30T03:03:34.833Z,5.90
2018-09-30T03:06:04.199Z,13.60
2018-09-30T03:08:38.396Z,8.90
2018-09-30T03:11:07.886Z,5.80
2018-09-30T03:13:36.738Z,7.77
2018-09-30T03:16:05.717Z,7.30
2018-09-30T03:18:34.759Z,9.60
2018-09-30T03:21:03.811Z,7.27
2018-09-30T03:23:32.759Z,5.10
2018-09-30T03:26:01.654Z,5.33
2018-09-30T03:28:30.612Z,11.70
2018-09-30T03:30:59.562Z,11.43
2018-09-30T03:33:28.481Z,8.17
2018-09-30T03:35:57.466Z,9.47
2018-09-30T03:38:27.373Z,4.67
2018-09-30T03:40:54.940Z,4.83
2018-09-30T03:43:22.474Z,9.67
2018-09-30T03:45:50.162Z,8.57
2018-09-30T03:48:17.716Z,5.20
2018-09-30T03:50:45.229Z,7.63
2018-09-30T03:53:12.804Z,7.83
2018-09-30T03:55:40.329Z,6.17
2018-09-30T03:58:07.905Z,6.30
2018-09-30T04:00:36.757Z,7.20
2018-09-30T04:03:05.705Z,7.90
2018-09-30T04:05:34.532Z,6.20
2018-09-30T04:08:03.756Z,5.17
2018-09-30T04:10:32.652Z,9.07
2018-09-30T04:13:01.515Z,17.03
2018-09-30T04:15:30.412Z,6.40
2018-09-30T04:17:59.397Z,7.50
2018-09-30T04:20:28.341Z,6.50
2018-09-30T04:22:57.216Z,11.83
2018-09-30T04:25:26.108Z,6.60
2018-09-30T04:27:54.988Z,7.83
2018-09-30T04:30:23.842Z,6.30
2018-09-30T04:32:53.193Z,5.00
2018-09-30T04:35:22.053Z,7.63
2018-09-30T04:37:51.821Z,9.93
2018-09-30T04:40:20.930Z,14.13
2018-09-30T04:42:49.933Z,12.00
2018-09-30T04:45:18.871Z,8.13
2018-09-30T04:47:47.722Z,7.77
2018-09-30T04:50:16.610Z,5.10
2018-09-30T04:52:45.820Z,5.80
2018-09-30T04:55:14.712Z,6.83
2018-09-30T04:57:43.591Z,4.83
2018-09-30T05:00:12.517Z,7.70
2018-09-30T05:02:41.505Z,10.87
2018-09-30T05:05:10.385Z,10.30
2018-09-30T05:07:39.330Z,6.23
2018-09-30T05:10:08.309Z,9.80
2018-09-30T05:12:37.196Z,8.03
2018-09-30T05:15:06.188Z,8.87
2018-09-30T05:17:35.345Z,7.97
2018-09-30T05:20:04.339Z,7.97
2018-09-30T05:22:33.280Z,9.00
2018-09-30T05:25:02.256Z,9.47
2018-09-30T05:27:31.116Z,12.97
2018-09-30T05:29:59.995Z,8.60
2018-09-30T05:32:28.980Z,9.47
2018-09-30T05:34:57.837Z,9.43
2018-09-30T05:37:26.761Z,9.27
2018-09-30T05:39:55.912Z,9.57
2018-09-30T05:42:24.871Z,15.03
2018-09-30T05:44:53.784Z,18.40
2018-09-30T05:47:22.754Z,11.30
2018-09-30T05:49:51.863Z,9.70
2018-09-30T05:52:20.781Z,9.77
2018-09-30T05:54:50.481Z,12.03
2018-09-30T05:57:19.481Z,7.60
2018-09-30T05:59:49.340Z,11.40
2018-09-30T06:02:18.329Z,9.50
2018-09-30T06:04:47.113Z,13.13
2018-09-30T06:07:16.217Z,12.00
2018-09-30T06:09:45.131Z,13.43
2018-09-30T06:12:15.065Z,12.20
2018-09-30T06:14:44.049Z,13.70
2018-09-30T06:17:12.939Z,12.37
2018-09-30T06:19:41.920Z,10.33
2018-09-30T06:22:10.807Z,10.70
2018-09-30T06:24:39.756Z,13.23
2018-09-30T06:27:08.627Z,9.80
2018-09-30T06:29:37.496Z,10.67
2018-09-30T06:32:06.457Z,11.40
2018-09-30T06:34:35.664Z,12.73
2018-09-30T06:37:04.599Z,15.17
2018-09-30T06:39:33.437Z,10.40
2018-09-30T06:42:02.422Z,14.00
2018-09-30T06:44:31.500Z,8.20
2018-09-30T06:47:00.332Z,11.40
2018-09-30T06:49:29.305Z,12.37
2018-09-30T06:51:58.230Z,11.97
2018-09-30T06:54:27.045Z,12.63
2018-09-30T06:56:55.940Z,9.70
2018-09-30T06:59:24.970Z,8.40
2018-09-30T07:01:53.884Z,11.77
2018-09-30T07:04:22.819Z,8.10
2018-09-30T07:06:51.643Z,8.43
2018-09-30T07:09:20.853Z,14.53
2018-09-30T07:11:49.701Z,12.03
2018-09-30T07:14:18.643Z,12.50
2018-09-30T07:16:47.595Z,9.20
2018-09-30T07:19:16.487Z,8.47
2018-09-30T07:21:45.346Z,14.83
2018-09-30T07:24:15.646Z,17.80
2018-09-30T07:26:44.525Z,15.23
2018-09-30T07:29:13.461Z,11.57
2018-09-30T07:31:42.383Z,11.20
2018-09-30T07:34:11.321Z,15.33
2018-09-30T07:36:40.496Z,24.37
2018-09-30T07:39:10.413Z,14.13
2018-09-30T07:41:39.420Z,16.00
2018-09-30T07:44:08.437Z,11.93
2018-09-30T07:46:37.426Z,15.27
2018-09-30T07:49:06.363Z,17.03
2018-09-30T07:51:35.354Z,15.23
2018-09-30T07:54:04.261Z,16.30
2018-09-30T07:56:33.177Z,16.70
2018-09-30T07:59:02.450Z,13.47
2018-09-30T08:01:31.349Z,18.27
2018-09-30T08:04:00.336Z,15.70
2018-09-30T08:06:29.341Z,14.07
2018-09-30T08:08:58.219Z,22.03
2018-09-30T08:11:27.085Z,17.57
2018-09-30T08:13:55.948Z,20.00
2018-09-30T08:16:24.837Z,21.93
2018-09-30T08:18:53.892Z,20.17
2018-09-30T08:21:22.823Z,22.57
2018-09-30T08:23:51.738Z,21.63
2018-09-30T08:26:20.704Z,25.13
2018-09-30T08:28:49.563Z,20.77
2018-09-30T08:31:19.041Z,19.40
2018-09-30T08:33:47.924Z,29.97
2018-09-30T08:36:16.869Z,30.20
2018-09-30T08:38:46.771Z,21.23
2018-09-30T08:41:16.777Z,18.77
2018-09-30T08:43:45.739Z,18.83
2018-09-30T08:46:14.602Z,21.23
2018-09-30T08:48:43.564Z,23.17
2018-09-30T08:51:12.565Z,23.73
2018-09-30T08:53:42.355Z,24.50
2018-09-30T08:56:11.405Z,28.10
2018-09-30T08:58:40.432Z,22.77
2018-09-30T09:01:09.440Z,18.53
2018-09-30T09:03:39.240Z,26.27
2018-09-30T09:06:09.262Z,26.63
2018-09-30T09:08:38.159Z,24.20
2018-09-30T09:11:07.417Z,24.17
2018-09-30T09:13:36.456Z,23.03
2018-09-30T09:16:05.545Z,24.77
2018-09-30T09:18:34.583Z,25.77
2018-09-30T09:21:05.113Z,25.70
2018-09-30T09:23:33.984Z,29.53
2018-09-30T09:26:03.279Z,30.23
2018-09-30T09:28:32.272Z,27.77
2018-09-30T09:31:01.209Z,31.30
2018-09-30T09:33:30.213Z,33.23
2018-09-30T09:36:00.197Z,28.43
2018-09-30T09:38:30.283Z,28.27
2018-09-30T09:40:59.162Z,30.57
2018-09-30T09:43:28.160Z,30.37
2018-09-30T09:45:57.044Z,27.27
2018-09-30T09:48:28.687Z,30.67
2018-09-30T09:50:57.568Z,32.53
2018-09-30T09:53:26.636Z,37.63
2018-09-30T09:55:55.536Z,30.83
2018-09-30T09:58:25.244Z,27.20
2018-09-30T10:00:55.245Z,29.23
2018-09-30T10:03:24.283Z,33.63
2018-09-30T10:05:53.841Z,37.03
2018-09-30T10:08:22.801Z,32.23
2018-09-30T10:10:55.788Z,33.83
2018-09-30T10:13:24.793Z,32.87
2018-09-30T10:15:53.876Z,31.20
2018-09-30T10:18:22.907Z,30.83
2018-09-30T10:20:51.770Z,30.47
2018-09-30T10:23:20.842Z,31.33
2018-09-30T10:25:49.979Z,32.40
2018-09-30T10:28:18.937Z,28.83
2018-09-30T10:30:47.976Z,30.40
2018-09-30T10:33:17.860Z,31.50
2018-09-30T10:35:46.816Z,32.17
2018-09-30T10:38:15.916Z,26.83
2018-09-30T10:40:44.870Z,26.70
2018-09-30T10:43:13.922Z,25.03
2018-09-30T10:45:43.006Z,33.07
2018-09-30T10:48:11.947Z,25.33
2018-09-30T10:50:40.908Z,23.87
2018-09-30T10:53:09.832Z,29.33
2018-09-30T10:55:38.791Z,27.57
2018-09-30T10:58:07.845Z,27.20
2018-09-30T11:00:36.685Z,23.80
2018-09-30T11:03:05.734Z,25.97
2018-09-30T11:05:34.759Z,21.80
2018-09-30T11:08:03.696Z,26.23
2018-09-30T11:10:32.609Z,30.30
2018-09-30T11:13:01.536Z,30.53
2018-09-30T11:15:30.476Z,29.73
2018-09-30T11:17:59.459Z,25.63
2018-09-30T11:20:29.021Z,28.40
2018-09-30T11:22:58.840Z,25.37
2018-09-30T11:25:27.722Z,30.20
2018-09-30T11:27:56.821Z,25.00
2018-09-30T11:30:25.839Z,24.40
2018-09-30T11:32:54.725Z,30.27
2018-09-30T11:35:24.343Z,24.30
2018-09-30T11:37:55.106Z,29.97
2018-09-30T11:40:23.288Z,23.60
2018-09-30T11:42:50.871Z,39.03
2018-09-30T11:45:18.446Z,26.07
2018-09-30T11:47:46.101Z,28.33
2018-09-30T11:50:13.972Z,28.50
2018-09-30T11:52:41.490Z,40.27
2018-09-30T11:55:09.062Z,33.03
2018-09-30T11:57:36.588Z,31.73
2018-09-30T12:00:04.104Z,26.77
2018-09-30T12:02:31.623Z,30.13
2018-09-30T12:04:59.226Z,31.40
2018-09-30T12:07:26.709Z,35.37
2018-09-30T12:09:54.192Z,38.40
2018-09-30T12:12:21.964Z,25.67
2018-09-30T12:14:49.478Z,30.13
2018-09-30T12:17:16.969Z,31.57
2018-09-30T12:19:44.717Z,30.70
2018-09-30T12:22:12.192Z,25.77
2018-09-30T12:24:39.655Z,30.33
2018-09-30T12:27:07.196Z,27.63
2018-09-30T12:29:34.682Z,32.40
2018-09-30T12:32:02.229Z,33.47
2018-09-30T12:34:29.985Z,27.97
2018-09-30T12:36:57.717Z,30.00
2018-09-30T12:39:25.323Z,30.23
2018-09-30T12:41:54.077Z,31.00
2018-09-30T12:44:22.885Z,28.63
2018-09-30T12:46:51.857Z,29.40
2018-09-30T12:49:20.649Z,31.00
2018-09-30T12:51:49.463Z,30.40
2018-09-30T12:54:18.282Z,30.53
2018-09-30T12:56:47.062Z,34.03
2018-09-30T12:59:15.889Z,31.83
2018-09-30T13:01:44.681Z,27.10
2018-09-30T13:04:13.554Z,30.07
2018-09-30T13:06:42.384Z,29.90
2018-09-30T13:09:11.520Z,30.77
2018-09-30T13:11:40.320Z,29.90
2018-09-30T13:14:09.276Z,27.53
2018-09-30T13:16:38.199Z,28.07
2018-09-30T13:19:08.289Z,35.73
2018-09-30T13:21:37.085Z,29.13
2018-09-30T13:24:06.082Z,30.20
2018-09-30T13:26:34.995Z,29.70
2018-09-30T13:29:03.830Z,24.40
2018-09-30T13:31:32.659Z,26.90
2018-09-30T13:34:01.494Z,28.13
2018-09-30T13:36:30.332Z,28.13
2018-09-30T13:38:59.109Z,28.13
2018-09-30T13:41:27.950Z,27.73
2018-09-30T13:43:56.709Z,27.80
2018-09-30T13:46:25.589Z,28.70
2018-09-30T13:48:54.418Z,27.50
2018-09-30T13:51:23.260Z,27.40
2018-09-30T13:53:52.030Z,29.30
2018-09-30T13:56:20.845Z,29.20
2018-09-30T13:58:49.648Z,27.47
2018-09-30T14:01:18.502Z,35.20
2018-09-30T14:03:47.272Z,29.20
2018-09-30T14:06:16.068Z,27.33
2018-09-30T14:08:45.889Z,29.93
2018-09-30T14:11:14.691Z,31.40
2018-09-30T14:13:43.578Z,24.83
2018-09-30T14:16:12.458Z,29.67
2018-09-30T14:18:41.301Z,29.83
2018-09-30T14:21:10.181Z,26.83
2018-09-30T14:23:38.965Z,29.60
2018-09-30T14:26:08.141Z,27.63
2018-09-30T14:28:37.216Z,29.03
2018-09-30T14:31:06.114Z,27.03
2018-09-30T14:33:34.944Z,32.90
2018-09-30T14:36:04.037Z,25.30
2018-09-30T14:38:32.837Z,44.90
2018-09-30T14:41:01.605Z,31.40
2018-09-30T14:43:30.486Z,28.37
2018-09-30T14:45:59.365Z,29.00
2018-09-30T14:48:28.205Z,26.03
2018-09-30T14:50:57.059Z,30.00
2018-09-30T14:53:25.912Z,33.47
2018-09-30T14:55:54.980Z,27.47
2018-09-30T14:58:23.884Z,26.90
2018-09-30T15:00:52.695Z,28.33
2018-09-30T15:03:21.818Z,24.00
2018-09-30T15:05:50.618Z,32.50
2018-09-30T15:08:19.411Z,24.63
2018-09-30T15:10:48.476Z,23.47
2018-09-30T15:13:17.520Z,30.43
2018-09-30T15:15:46.363Z,26.73
2018-09-30T15:18:15.175Z,20.50
2018-09-30T15:20:43.971Z,29.23
2018-09-30T15:23:12.764Z,27.13
2018-09-30T15:25:41.589Z,24.30
2018-09-30T15:28:10.464Z,27.30
2018-09-30T15:30:39.444Z,24.87
2018-09-30T15:33:08.374Z,24.20
2018-09-30T15:35:37.232Z,19.57
2018-09-30T15:38:06.156Z,22.97
2018-09-30T15:40:34.963Z,25.97
2018-09-30T15:43:03.884Z,25.53
2018-09-30T15:45:32.657Z,24.10
2018-09-30T15:48:01.423Z,15.50
2018-09-30T15:50:30.248Z,31.40
2018-09-30T15:52:59.098Z,28.33
2018-09-30T15:55:27.896Z,19.87
2018-09-30T15:57:56.674Z,19.83
2018-09-30T16:00:25.476Z,20.50
2018-09-30T16:02:54.247Z,18.27
2018-09-30T16:05:23.102Z,19.47
2018-09-30T16:07:51.952Z,21.77
2018-09-30T16:10:20.710Z,15.80
2018-09-30T16:12:49.525Z,17.73
2018-09-30T16:15:18.319Z,16.97
2018-09-30T16:17:47.169Z,17.30
2018-09-30T16:20:16.048Z,16.27
2018-09-30T16:22:44.920Z,20.13
2018-09-30T16:25:13.782Z,19.73
2018-09-30T16:27:42.644Z,18.87
2018-09-30T16:30:11.458Z,17.37
2018-09-30T16:32:40.343Z,22.50
2018-09-30T16:35:09.362Z,24.77
2018-09-30T16:37:38.181Z,15.97
2018-09-30T16:40:07.144Z,18.27
2018-09-30T16:42:35.993Z,22.57
2018-09-30T16:45:04.959Z,23.10
2018-09-30T16:47:33.818Z,23.53
2018-09-30T16:50:02.897Z,25.93
2018-09-30T16:52:31.760Z,26.93
2018-09-30T16:55:00.637Z,21.73
2018-09-30T16:57:29.560Z,23.50
2018-09-30T16:59:58.355Z,26.07
2018-09-30T17:02:27.238Z,22.10
2018-09-30T17:04:56.144Z,26.50
2018-09-30T17:07:25.071Z,24.70
2018-09-30T17:09:53.895Z,23.67
2018-09-30T17:12:22.737Z,28.93
2018-09-30T17:14:51.574Z,27.20
2018-09-30T17:17:20.485Z,27.53
2018-09-30T17:19:49.331Z,25.53
2018-09-30T17:22:18.167Z,27.70
2018-09-30T17:24:47.042Z,25.40
2018-09-30T17:27:15.941Z,26.50
2018-09-30T17:29:44.796Z,30.10
2018-09-30T17:32:13.605Z,29.60
2018-09-30T17:34:42.551Z,26.33
2018-09-30T17:37:11.412Z,31.57
2018-09-30T17:39:40.172Z,28.13
2018-09-30T17:42:09.012Z,29.93
2018-09-30T17:44:38.362Z,35.93
2018-09-30T17:47:07.267Z,26.27
2018-09-30T17:49:36.144Z,29.00
2018-09-30T17:52:05.249Z,28.17
2018-09-30T17:54:34.135Z,29.90
2018-09-30T17:57:03.008Z,32.67
2018-09-30T17:59:31.939Z,35.60
2018-09-30T18:02:00.756Z,33.20
2018-09-30T18:04:29.654Z,37.03
2018-09-30T18:06:58.604Z,39.57
2018-09-30T18:09:28.499Z,28.87
2018-09-30T18:11:57.368Z,36.23
2018-09-30T18:14:26.227Z,34.83
2018-09-30T18:16:55.161Z,37.23
2018-09-30T18:19:24.056Z,32.10
2018-09-30T18:21:53.018Z,29.53
2018-09-30T18:24:23.381Z,34.03
2018-09-30T18:26:53.090Z,37.27
2018-09-30T18:38:01.697Z,36.93
2018-09-30T18:40:37.973Z,36.63
2018-09-30T18:43:07.268Z,35.20
2018-09-30T18:45:36.190Z,42.80
2018-09-30T18:48:25.056Z,41.37
2018-09-30T18:50:52.600Z,41.37
2018-09-30T18:53:20.209Z,46.93
2018-09-30T18:55:47.885Z,44.70
2018-09-30T18:58:15.537Z,43.70
2018-09-30T19:03:36.212Z,39.47
2018-09-30T19:06:03.997Z,36.40
2018-09-30T19:08:31.637Z,41.13
2018-09-30T19:11:03.809Z,41.27
2018-09-30T19:13:32.795Z,41.07
2018-09-30T19:16:00.455Z,37.80
2018-09-30T19:18:28.021Z,39.23
2018-09-30T19:20:57.286Z,42.40
2018-09-30T19:23:26.225Z,44.87
2018-09-30T19:28:57.903Z,43.27
2018-09-30T19:31:26.645Z,42.70
2018-09-30T19:33:55.512Z,42.63
2018-09-30T19:36:24.687Z,42.70
2018-09-30T19:38:53.629Z,39.87
2018-09-30T19:41:22.572Z,46.03
2018-09-30T19:43:52.421Z,46.27
2018-09-30T19:46:21.408Z,41.73
2018-09-30T19:51:42.875Z,42.97
2018-09-30T19:54:12.941Z,46.37
2018-09-30T19:56:41.927Z,46.73
2018-09-30T19:59:11.250Z,39.83
2018-09-30T20:01:40.376Z,46.20
2018-09-30T20:04:09.280Z,43.10
2018-09-30T20:09:29.973Z,43.73
2018-09-30T20:15:07.486Z,45.83
2018-09-30T20:17:36.294Z,44.77
2018-09-30T20:20:05.380Z,43.73
2018-09-30T20:22:34.228Z,43.40
2018-09-30T20:25:03.160Z,47.20
2018-09-30T20:27:31.964Z,44.03
2018-09-30T20:30:00.951Z,50.47
2018-09-30T20:32:29.837Z,49.90
2018-09-30T20:34:58.652Z,43.80
2018-09-30T20:37:27.488Z,55.53
2018-09-30T20:39:56.410Z,47.17
2018-09-30T20:42:25.460Z,54.30
2018-09-30T20:44:54.264Z,50.23
2018-09-30T20:47:23.495Z,46.13
2018-09-30T20:49:52.359Z,47.87
2018-09-30T20:52:21.623Z,46.67
2018-09-30T20:54:50.595Z,46.13
2018-09-30T20:57:20.569Z,47.27
2018-09-30T20:59:49.811Z,42.93
2018-09-30T21:02:19.020Z,41.60
2018-09-30T21:04:47.943Z,38.97
2018-09-30T21:07:17.196Z,42.87
2018-09-30T21:09:46.092Z,42.37
2018-09-30T21:12:15.053Z,43.70
2018-09-30T21:14:43.937Z,45.63
2018-09-30T21:17:12.763Z,46.50
2018-09-30T21:19:41.653Z,42.37
2018-09-30T21:22:10.561Z,46.00
2018-09-30T21:24:39.380Z,41.50
2018-09-30T21:27:08.316Z,43.23
2018-09-30T21:29:38.199Z,38.80
2018-09-30T21:32:07.136Z,44.30
2018-09-30T21:34:36.104Z,45.90
2018-09-30T21:37:04.903Z,43.47
2018-09-30T21:39:33.723Z,45.83
2018-09-30T21:42:02.749Z,43.20
2018-09-30T21:44:31.592Z,39.73
2018-09-30T21:47:01.500Z,36.60
2018-09-30T21:49:30.481Z,44.33
2018-09-30T21:51:59.237Z,36.73
2018-09-30T21:54:28.127Z,36.70
2018-09-30T21:56:57.026Z,38.63
2018-09-30T21:59:25.860Z,39.93
2018-09-30T22:01:54.807Z,40.50
2018-09-30T22:04:23.966Z,42.40
2018-09-30T22:06:52.847Z,39.20
2018-09-30T22:09:21.743Z,42.23
2018-09-30T22:11:50.585Z,42.80
2018-09-30T22:14:19.463Z,36.43
2018-09-30T22:16:48.207Z,41.47
2018-09-30T22:19:17.263Z,37.40
2018-09-30T22:21:46.516Z,35.53
2018-09-30T22:24:15.448Z,37.97
2018-09-30T22:26:44.253Z,46.87
2018-09-30T22:29:14.883Z,36.30
2018-09-30T22:31:43.801Z,44.87
2018-09-30T22:34:12.812Z,35.00
2018-09-30T22:36:41.762Z,38.43
2018-09-30T22:39:10.619Z,37.17
2018-09-30T22:41:39.542Z,40.70
2018-09-30T22:44:08.435Z,40.47
2018-09-30T22:46:37.378Z,43.27
2018-09-30T22:49:06.227Z,47.87
2018-09-30T22:51:35.241Z,46.27
2018-09-30T22:54:05.147Z,35.90
2018-09-30T22:56:33.963Z,43.20
2018-09-30T22:59:03.771Z,44.17
2018-09-30T23:01:32.567Z,41.20
2018-09-30T23:04:01.342Z,45.80
2018-09-30T23:06:30.332Z,48.07
2018-09-30T23:08:59.263Z,43.63
2018-09-30T23:11:28.123Z,48.63
2018-09-30T23:13:57.085Z,53.70
2018-09-30T23:16:26.014Z,47.63
2018-09-30T23:18:55.133Z,43.80
2018-09-30T23:21:24.095Z,49.53
2018-09-30T23:23:52.991Z,45.97
2018-09-30T23:26:21.806Z,47.60
2018-09-30T23:28:50.599Z,46.33
2018-09-30T23:31:19.400Z,51.50
2018-09-30T23:33:48.207Z,46.37
2018-09-30T23:36:17.030Z,44.37
2018-09-30T23:38:45.775Z,44.53
2018-09-30T23:41:14.612Z,51.50
2018-09-30T23:43:43.552Z,45.53
2018-09-30T23:46:12.259Z,44.57
2018-09-30T23:48:41.091Z,44.37
2018-09-30T23:51:10.005Z,46.43
2018-09-30T23:53:38.867Z,44.03
2018-09-30T23:56:08.061Z,45.47
2018-09-30T23:58:37.043Z,49.40
